sensor_id;sensor_type;location;lat;lon;timestamp;P1;durP1;ratioP1;P2;durP2;ratioP2
48667;SDS011;34453;52.198;5.004;2023-04-24T00:01:21;6.43;;;1.17;;
48667;SDS011;34453;52.198;5.004;2023-04-24T00:03:46;1.70;;;1.60;;
48667;SDS011;34453;52.198;5.004;2023-04-24T00:06:12;2.70;;;1.95;;
48667;SDS011;34453;52.198;5.004;2023-04-24T00:08:37;1.60;;;1.50;;
48667;SDS011;34453;52.198;5.004;2023-04-24T00:11:03;0.90;;;0.90;;
48667;SDS011;34453;52.198;5.004;2023-04-24T00:13:28;0.70;;;0.70;;
48667;SDS011;34453;52.198;5.004;2023-04-24T00:15:55;0.75;;;0.50;;
48667;SDS011;34453;52.198;5.004;2023-04-24T00:18:20;0.68;;;0.47;;
48667;SDS011;34453;52.198;5.004;2023-04-24T00:20:46;1.70;;;0.40;;
48667;SDS011;34453;52.198;5.004;2023-04-24T00:23:12;1.08;;;0.47;;
48667;SDS011;34453;52.198;5.004;2023-04-24T00:25:40;0.60;;;0.60;;
48667;SDS011;34453;52.198;5.004;2023-04-24T00:28:05;1.95;;;0.90;;
48667;SDS011;34453;52.198;5.004;2023-04-24T00:30:31;0.80;;;0.80;;
48667;SDS011;34453;52.198;5.004;2023-04-24T00:32:57;1.58;;;0.80;;
48667;SDS011;34453;52.198;5.004;2023-04-24T00:35:23;0.80;;;0.80;;
48667;SDS011;34453;52.198;5.004;2023-04-24T00:37:48;1.15;;;1.15;;
48667;SDS011;34453;52.198;5.004;2023-04-24T00:40:14;1.05;;;0.85;;
48667;SDS011;34453;52.198;5.004;2023-04-24T00:42:40;3.22;;;1.30;;
48667;SDS011;34453;52.198;5.004;2023-04-24T00:45:06;1.98;;;0.95;;
48667;SDS011;34453;52.198;5.004;2023-04-24T00:47:34;1.13;;;0.73;;
48667;SDS011;34453;52.198;5.004;2023-04-24T00:50:01;1.35;;;0.98;;
48667;SDS011;34453;52.198;5.004;2023-04-24T00:52:28;3.55;;;1.90;;
48667;SDS011;34453;52.198;5.004;2023-04-24T00:54:56;4.55;;;0.88;;
48667;SDS011;34453;52.198;5.004;2023-04-24T00:57:21;5.75;;;1.60;;
48667;SDS011;34453;52.198;5.004;2023-04-24T00:59:48;0.80;;;0.75;;
48667;SDS011;34453;52.198;5.004;2023-04-24T01:02:15;1.17;;;1.10;;
48667;SDS011;34453;52.198;5.004;2023-04-24T01:04:40;2.42;;;1.02;;
48667;SDS011;34453;52.198;5.004;2023-04-24T01:07:06;0.82;;;0.82;;
48667;SDS011;34453;52.198;5.004;2023-04-24T01:09:36;1.92;;;1.25;;
48667;SDS011;34453;52.198;5.004;2023-04-24T01:12:05;1.52;;;1.42;;
48667;SDS011;34453;52.198;5.004;2023-04-24T01:14:31;1.40;;;1.40;;
48667;SDS011;34453;52.198;5.004;2023-04-24T01:16:57;1.40;;;1.40;;
48667;SDS011;34453;52.198;5.004;2023-04-24T01:19:22;2.97;;;1.17;;
48667;SDS011;34453;52.198;5.004;2023-04-24T01:21:48;1.23;;;1.20;;
48667;SDS011;34453;52.198;5.004;2023-04-24T01:24:19;2.75;;;1.35;;
48667;SDS011;34453;52.198;5.004;2023-04-24T01:26:45;3.05;;;1.15;;
48667;SDS011;34453;52.198;5.004;2023-04-24T01:29:11;1.10;;;1.10;;
48667;SDS011;34453;52.198;5.004;2023-04-24T01:31:36;1.40;;;1.30;;
48667;SDS011;34453;52.198;5.004;2023-04-24T01:34:03;5.70;;;1.48;;
48667;SDS011;34453;52.198;5.004;2023-04-24T01:36:29;1.55;;;1.35;;
48667;SDS011;34453;52.198;5.004;2023-04-24T01:38:56;1.05;;;1.05;;
48667;SDS011;34453;52.198;5.004;2023-04-24T01:41:21;1.50;;;1.40;;
48667;SDS011;34453;52.198;5.004;2023-04-24T01:43:48;1.30;;;1.30;;
48667;SDS011;34453;52.198;5.004;2023-04-24T01:46:14;2.90;;;1.42;;
48667;SDS011;34453;52.198;5.004;2023-04-24T01:48:40;1.55;;;1.45;;
48667;SDS011;34453;52.198;5.004;2023-04-24T01:51:06;2.58;;;1.13;;
48667;SDS011;34453;52.198;5.004;2023-04-24T01:53:32;2.25;;;1.40;;
48667;SDS011;34453;52.198;5.004;2023-04-24T01:55:57;2.10;;;1.40;;
48667;SDS011;34453;52.198;5.004;2023-04-24T01:58:23;1.20;;;1.10;;
48667;SDS011;34453;52.198;5.004;2023-04-24T02:00:48;2.30;;;1.20;;
48667;SDS011;34453;52.198;5.004;2023-04-24T02:03:14;2.17;;;1.02;;
48667;SDS011;34453;52.198;5.004;2023-04-24T02:05:39;0.90;;;0.90;;
48667;SDS011;34453;52.198;5.004;2023-04-24T02:08:05;0.90;;;0.90;;
48667;SDS011;34453;52.198;5.004;2023-04-24T02:10:30;1.02;;;1.02;;
48667;SDS011;34453;52.198;5.004;2023-04-24T02:12:55;2.03;;;0.88;;
48667;SDS011;34453;52.198;5.004;2023-04-24T02:15:21;1.35;;;1.25;;
48667;SDS011;34453;52.198;5.004;2023-04-24T02:17:46;1.50;;;1.40;;
48667;SDS011;34453;52.198;5.004;2023-04-24T02:20:12;2.22;;;1.63;;
48667;SDS011;34453;52.198;5.004;2023-04-24T02:22:37;3.47;;;1.70;;
48667;SDS011;34453;52.198;5.004;2023-04-24T02:25:03;2.05;;;1.95;;
48667;SDS011;34453;52.198;5.004;2023-04-24T02:27:28;2.63;;;1.90;;
48667;SDS011;34453;52.198;5.004;2023-04-24T02:29:54;3.15;;;1.33;;
48667;SDS011;34453;52.198;5.004;2023-04-24T02:32:20;6.30;;;1.30;;
48667;SDS011;34453;52.198;5.004;2023-04-24T02:34:45;5.05;;;1.92;;
48667;SDS011;34453;52.198;5.004;2023-04-24T02:37:11;5.20;;;1.73;;
48667;SDS011;34453;52.198;5.004;2023-04-24T02:39:36;5.30;;;1.60;;
48667;SDS011;34453;52.198;5.004;2023-04-24T02:42:01;5.93;;;1.67;;
48667;SDS011;34453;52.198;5.004;2023-04-24T02:44:27;3.00;;;1.70;;
48667;SDS011;34453;52.198;5.004;2023-04-24T02:46:53;3.65;;;1.92;;
48667;SDS011;34453;52.198;5.004;2023-04-24T02:49:18;1.50;;;1.40;;
48667;SDS011;34453;52.198;5.004;2023-04-24T02:51:43;3.15;;;2.00;;
48667;SDS011;34453;52.198;5.004;2023-04-24T02:54:09;2.10;;;1.90;;
48667;SDS011;34453;52.198;5.004;2023-04-24T02:56:35;5.95;;;1.77;;
48667;SDS011;34453;52.198;5.004;2023-04-24T02:59:00;4.68;;;2.28;;
48667;SDS011;34453;52.198;5.004;2023-04-24T03:01:26;2.58;;;1.80;;
48667;SDS011;34453;52.198;5.004;2023-04-24T03:03:51;5.80;;;2.42;;
48667;SDS011;34453;52.198;5.004;2023-04-24T03:06:17;3.60;;;2.33;;
48667;SDS011;34453;52.198;5.004;2023-04-24T03:08:42;5.75;;;2.15;;
48667;SDS011;34453;52.198;5.004;2023-04-24T03:11:08;2.28;;;2.17;;
48667;SDS011;34453;52.198;5.004;2023-04-24T03:13:33;2.10;;;1.98;;
48667;SDS011;34453;52.198;5.004;2023-04-24T03:15:58;4.40;;;2.15;;
48667;SDS011;34453;52.198;5.004;2023-04-24T03:18:24;2.33;;;1.92;;
48667;SDS011;34453;52.198;5.004;2023-04-24T03:20:50;2.70;;;2.55;;
48667;SDS011;34453;52.198;5.004;2023-04-24T03:23:15;2.08;;;1.98;;
48667;SDS011;34453;52.198;5.004;2023-04-24T03:25:41;2.40;;;2.30;;
48667;SDS011;34453;52.198;5.004;2023-04-24T03:28:07;3.38;;;2.28;;
48667;SDS011;34453;52.198;5.004;2023-04-24T03:30:33;2.50;;;2.40;;
48667;SDS011;34453;52.198;5.004;2023-04-24T03:32:59;2.10;;;2.00;;
48667;SDS011;34453;52.198;5.004;2023-04-24T03:35:24;2.05;;;1.95;;
48667;SDS011;34453;52.198;5.004;2023-04-24T03:37:50;2.53;;;2.35;;
48667;SDS011;34453;52.198;5.004;2023-04-24T03:40:15;1.80;;;1.75;;
48667;SDS011;34453;52.198;5.004;2023-04-24T03:42:40;2.50;;;2.28;;
48667;SDS011;34453;52.198;5.004;2023-04-24T03:45:06;2.20;;;2.10;;
48667;SDS011;34453;52.198;5.004;2023-04-24T03:47:32;2.28;;;2.17;;
48667;SDS011;34453;52.198;5.004;2023-04-24T03:49:57;4.85;;;2.25;;
48667;SDS011;34453;52.198;5.004;2023-04-24T03:52:23;2.25;;;2.15;;
48667;SDS011;34453;52.198;5.004;2023-04-24T03:54:48;3.28;;;2.42;;
48667;SDS011;34453;52.198;5.004;2023-04-24T03:57:14;2.55;;;2.45;;
48667;SDS011;34453;52.198;5.004;2023-04-24T03:59:39;2.22;;;2.08;;
48667;SDS011;34453;52.198;5.004;2023-04-24T04:02:04;3.17;;;2.85;;
48667;SDS011;34453;52.198;5.004;2023-04-24T04:04:30;2.90;;;2.70;;
48667;SDS011;34453;52.198;5.004;2023-04-24T04:06:55;2.80;;;2.50;;
48667;SDS011;34453;52.198;5.004;2023-04-24T04:09:21;2.88;;;2.75;;
48667;SDS011;34453;52.198;5.004;2023-04-24T04:11:46;3.08;;;2.78;;
48667;SDS011;34453;52.198;5.004;2023-04-24T04:14:11;2.55;;;2.42;;
48667;SDS011;34453;52.198;5.004;2023-04-24T04:16:37;3.08;;;2.88;;
48667;SDS011;34453;52.198;5.004;2023-04-24T04:19:02;2.20;;;2.08;;
48667;SDS011;34453;52.198;5.004;2023-04-24T04:21:28;2.50;;;2.40;;
48667;SDS011;34453;52.198;5.004;2023-04-24T04:23:55;4.13;;;2.50;;
48667;SDS011;34453;52.198;5.004;2023-04-24T04:26:21;3.13;;;2.28;;
48667;SDS011;34453;52.198;5.004;2023-04-24T04:28:50;1.83;;;1.73;;
48667;SDS011;34453;52.198;5.004;2023-04-24T04:31:16;2.20;;;1.95;;
48667;SDS011;34453;52.198;5.004;2023-04-24T04:33:41;2.78;;;2.40;;
48667;SDS011;34453;52.198;5.004;2023-04-24T04:36:07;2.40;;;2.03;;
48667;SDS011;34453;52.198;5.004;2023-04-24T04:38:33;2.08;;;1.75;;
48667;SDS011;34453;52.198;5.004;2023-04-24T04:41:00;2.53;;;1.58;;
48667;SDS011;34453;52.198;5.004;2023-04-24T04:43:25;1.60;;;1.50;;
48667;SDS011;34453;52.198;5.004;2023-04-24T04:45:51;2.70;;;1.35;;
48667;SDS011;34453;52.198;5.004;2023-04-24T04:48:17;1.52;;;1.23;;
48667;SDS011;34453;52.198;5.004;2023-04-24T04:50:43;1.77;;;1.25;;
48667;SDS011;34453;52.198;5.004;2023-04-24T04:53:09;1.33;;;1.33;;
48667;SDS011;34453;52.198;5.004;2023-04-24T04:55:35;2.45;;;1.15;;
48667;SDS011;34453;52.198;5.004;2023-04-24T04:58:01;1.33;;;0.98;;
48667;SDS011;34453;52.198;5.004;2023-04-24T05:00:26;1.23;;;0.60;;
48667;SDS011;34453;52.198;5.004;2023-04-24T05:02:53;2.33;;;0.75;;
48667;SDS011;34453;52.198;5.004;2023-04-24T05:05:19;0.43;;;0.43;;
48667;SDS011;34453;52.198;5.004;2023-04-24T05:07:45;0.32;;;0.30;;
48667;SDS011;34453;52.198;5.004;2023-04-24T05:10:10;1.42;;;0.63;;
48667;SDS011;34453;52.198;5.004;2023-04-24T05:12:36;1.02;;;0.35;;
48667;SDS011;34453;52.198;5.004;2023-04-24T05:15:02;0.52;;;0.52;;
48667;SDS011;34453;52.198;5.004;2023-04-24T05:17:28;0.40;;;0.40;;
48667;SDS011;34453;52.198;5.004;2023-04-24T05:19:54;1.75;;;0.50;;
48667;SDS011;34453;52.198;5.004;2023-04-24T05:22:20;0.40;;;0.40;;
48667;SDS011;34453;52.198;5.004;2023-04-24T05:24:46;2.05;;;0.80;;
48667;SDS011;34453;52.198;5.004;2023-04-24T05:27:12;0.68;;;0.68;;
48667;SDS011;34453;52.198;5.004;2023-04-24T05:29:37;0.93;;;0.93;;
48667;SDS011;34453;52.198;5.004;2023-04-24T05:32:03;0.75;;;0.75;;
48667;SDS011;34453;52.198;5.004;2023-04-24T05:34:28;3.50;;;0.70;;
48667;SDS011;34453;52.198;5.004;2023-04-24T05:36:54;1.88;;;1.00;;
48667;SDS011;34453;52.198;5.004;2023-04-24T05:39:19;1.98;;;1.20;;
48667;SDS011;34453;52.198;5.004;2023-04-24T05:41:45;1.20;;;1.20;;
48667;SDS011;34453;52.198;5.004;2023-04-24T05:44:10;2.30;;;0.90;;
48667;SDS011;34453;52.198;5.004;2023-04-24T05:46:36;5.32;;;1.55;;
48667;SDS011;34453;52.198;5.004;2023-04-24T05:49:01;2.47;;;1.30;;
48667;SDS011;34453;52.198;5.004;2023-04-24T05:51:27;8.25;;;2.92;;
48667;SDS011;34453;52.198;5.004;2023-04-24T05:53:53;6.35;;;4.07;;
48667;SDS011;34453;52.198;5.004;2023-04-24T05:56:18;9.23;;;6.80;;
48667;SDS011;34453;52.198;5.004;2023-04-24T05:58:45;12.98;;;8.45;;
48667;SDS011;34453;52.198;5.004;2023-04-24T06:01:10;14.00;;;8.82;;
48667;SDS011;34453;52.198;5.004;2023-04-24T06:03:37;15.63;;;9.88;;
48667;SDS011;34453;52.198;5.004;2023-04-24T06:06:04;16.90;;;10.15;;
48667;SDS011;34453;52.198;5.004;2023-04-24T06:08:31;13.13;;;10.25;;
48667;SDS011;34453;52.198;5.004;2023-04-24T06:10:56;17.00;;;9.75;;
48667;SDS011;34453;52.198;5.004;2023-04-24T06:13:22;16.85;;;11.25;;
48667;SDS011;34453;52.198;5.004;2023-04-24T06:15:47;21.25;;;11.05;;
48667;SDS011;34453;52.198;5.004;2023-04-24T06:18:12;20.00;;;11.85;;
48667;SDS011;34453;52.198;5.004;2023-04-24T06:20:38;16.20;;;11.20;;
48667;SDS011;34453;52.198;5.004;2023-04-24T06:23:04;25.77;;;12.88;;
48667;SDS011;34453;52.198;5.004;2023-04-24T06:25:29;21.00;;;12.52;;
48667;SDS011;34453;52.198;5.004;2023-04-24T06:27:55;18.98;;;13.63;;
48667;SDS011;34453;52.198;5.004;2023-04-24T06:30:21;23.02;;;12.63;;
48667;SDS011;34453;52.198;5.004;2023-04-24T06:32:47;11.73;;;10.07;;
48667;SDS011;34453;52.198;5.004;2023-04-24T06:35:12;24.13;;;10.07;;
48667;SDS011;34453;52.198;5.004;2023-04-24T06:37:41;24.27;;;11.70;;
48667;SDS011;34453;52.198;5.004;2023-04-24T06:40:10;15.93;;;10.57;;
48667;SDS011;34453;52.198;5.004;2023-04-24T06:42:35;20.85;;;10.50;;
48667;SDS011;34453;52.198;5.004;2023-04-24T06:45:01;18.42;;;10.40;;
48667;SDS011;34453;52.198;5.004;2023-04-24T06:47:28;21.65;;;10.90;;
48667;SDS011;34453;52.198;5.004;2023-04-24T06:49:53;17.13;;;10.60;;
48667;SDS011;34453;52.198;5.004;2023-04-24T06:52:20;17.60;;;8.82;;
48667;SDS011;34453;52.198;5.004;2023-04-24T06:54:45;28.77;;;9.98;;
48667;SDS011;34453;52.198;5.004;2023-04-24T06:57:11;24.25;;;10.32;;
48667;SDS011;34453;52.198;5.004;2023-04-24T06:59:36;33.85;;;9.73;;
48667;SDS011;34453;52.198;5.004;2023-04-24T07:02:02;29.83;;;11.05;;
48667;SDS011;34453;52.198;5.004;2023-04-24T07:04:28;15.85;;;8.98;;
48667;SDS011;34453;52.198;5.004;2023-04-24T07:06:54;23.67;;;8.93;;
48667;SDS011;34453;52.198;5.004;2023-04-24T07:09:21;24.88;;;8.75;;
48667;SDS011;34453;52.198;5.004;2023-04-24T07:11:47;21.40;;;7.45;;
48667;SDS011;34453;52.198;5.004;2023-04-24T07:14:13;21.08;;;7.03;;
48667;SDS011;34453;52.198;5.004;2023-04-24T07:16:38;16.27;;;6.53;;
48667;SDS011;34453;52.198;5.004;2023-04-24T07:19:04;18.88;;;7.60;;
48667;SDS011;34453;52.198;5.004;2023-04-24T07:21:29;23.90;;;7.80;;
48667;SDS011;34453;52.198;5.004;2023-04-24T07:23:57;24.98;;;7.22;;
48667;SDS011;34453;52.198;5.004;2023-04-24T07:26:22;18.52;;;6.07;;
48667;SDS011;34453;52.198;5.004;2023-04-24T07:28:48;26.27;;;6.65;;
48667;SDS011;34453;52.198;5.004;2023-04-24T07:31:13;31.00;;;6.50;;
48667;SDS011;34453;52.198;5.004;2023-04-24T07:33:39;29.45;;;7.63;;
48667;SDS011;34453;52.198;5.004;2023-04-24T07:36:05;14.75;;;6.55;;
48667;SDS011;34453;52.198;5.004;2023-04-24T07:38:30;16.27;;;5.80;;
48667;SDS011;34453;52.198;5.004;2023-04-24T07:40:56;23.95;;;5.32;;
48667;SDS011;34453;52.198;5.004;2023-04-24T07:43:21;16.80;;;4.95;;
48667;SDS011;34453;52.198;5.004;2023-04-24T07:45:48;30.52;;;5.13;;
48667;SDS011;34453;52.198;5.004;2023-04-24T07:48:14;29.88;;;5.63;;
48667;SDS011;34453;52.198;5.004;2023-04-24T07:50:41;24.60;;;6.15;;
48667;SDS011;34453;52.198;5.004;2023-04-24T07:53:07;24.08;;;4.13;;
48667;SDS011;34453;52.198;5.004;2023-04-24T07:55:32;25.25;;;4.13;;
48667;SDS011;34453;52.198;5.004;2023-04-24T07:57:58;18.27;;;3.22;;
48667;SDS011;34453;52.198;5.004;2023-04-24T08:00:23;21.00;;;4.93;;
48667;SDS011;34453;52.198;5.004;2023-04-24T08:02:49;18.92;;;4.47;;
48667;SDS011;34453;52.198;5.004;2023-04-24T08:05:14;16.95;;;2.90;;
48667;SDS011;34453;52.198;5.004;2023-04-24T08:07:40;15.07;;;4.30;;
48667;SDS011;34453;52.198;5.004;2023-04-24T08:10:07;14.18;;;3.17;;
48667;SDS011;34453;52.198;5.004;2023-04-24T08:12:35;12.23;;;2.92;;
48667;SDS011;34453;52.198;5.004;2023-04-24T08:15:00;17.27;;;2.78;;
48667;SDS011;34453;52.198;5.004;2023-04-24T08:17:25;12.57;;;2.58;;
48667;SDS011;34453;52.198;5.004;2023-04-24T08:19:52;9.55;;;2.17;;
48667;SDS011;34453;52.198;5.004;2023-04-24T08:22:24;17.63;;;3.60;;
48667;SDS011;34453;52.198;5.004;2023-04-24T08:24:49;15.27;;;4.13;;
48667;SDS011;34453;52.198;5.004;2023-04-24T08:27:14;8.13;;;2.53;;
48667;SDS011;34453;52.198;5.004;2023-04-24T08:29:40;19.88;;;3.50;;
48667;SDS011;34453;52.198;5.004;2023-04-24T08:32:05;18.05;;;3.58;;
48667;SDS011;34453;52.198;5.004;2023-04-24T08:34:31;8.68;;;2.08;;
48667;SDS011;34453;52.198;5.004;2023-04-24T08:36:56;27.88;;;5.15;;
48667;SDS011;34453;52.198;5.004;2023-04-24T08:39:22;11.27;;;2.30;;
48667;SDS011;34453;52.198;5.004;2023-04-24T08:41:47;6.75;;;2.30;;
48667;SDS011;34453;52.198;5.004;2023-04-24T08:44:13;7.53;;;1.90;;
48667;SDS011;34453;52.198;5.004;2023-04-24T08:46:41;16.27;;;2.60;;
48667;SDS011;34453;52.198;5.004;2023-04-24T08:49:09;9.43;;;1.90;;
48667;SDS011;34453;52.198;5.004;2023-04-24T08:51:36;17.23;;;3.17;;
48667;SDS011;34453;52.198;5.004;2023-04-24T08:54:02;12.07;;;3.75;;
48667;SDS011;34453;52.198;5.004;2023-04-24T08:56:28;7.28;;;3.20;;
48667;SDS011;34453;52.198;5.004;2023-04-24T08:58:56;4.00;;;2.08;;
48667;SDS011;34453;52.198;5.004;2023-04-24T09:01:22;4.95;;;2.20;;
48667;SDS011;34453;52.198;5.004;2023-04-24T09:03:50;7.47;;;3.90;;
48667;SDS011;34453;52.198;5.004;2023-04-24T09:06:17;7.22;;;2.45;;
48667;SDS011;34453;52.198;5.004;2023-04-24T09:08:44;10.82;;;2.50;;
48667;SDS011;34453;52.198;5.004;2023-04-24T09:11:10;9.50;;;2.78;;
48667;SDS011;34453;52.198;5.004;2023-04-24T09:13:36;8.73;;;2.70;;
48667;SDS011;34453;52.198;5.004;2023-04-24T09:16:02;11.48;;;2.13;;
48667;SDS011;34453;52.198;5.004;2023-04-24T09:18:28;4.32;;;1.85;;
48667;SDS011;34453;52.198;5.004;2023-04-24T09:20:57;10.70;;;3.50;;
48667;SDS011;34453;52.198;5.004;2023-04-24T09:23:26;6.63;;;1.95;;
48667;SDS011;34453;52.198;5.004;2023-04-24T09:25:56;4.03;;;1.73;;
48667;SDS011;34453;52.198;5.004;2023-04-24T09:28:26;6.00;;;2.00;;
48667;SDS011;34453;52.198;5.004;2023-04-24T09:31:08;6.00;;;1.88;;
48667;SDS011;34453;52.198;5.004;2023-04-24T09:34:02;10.30;;;1.60;;
48667;SDS011;34453;52.198;5.004;2023-04-24T09:36:33;6.70;;;3.25;;
48667;SDS011;34453;52.198;5.004;2023-04-24T09:39:02;6.00;;;1.35;;
48667;SDS011;34453;52.198;5.004;2023-04-24T09:41:29;14.57;;;3.80;;
48667;SDS011;34453;52.198;5.004;2023-04-24T09:43:55;6.07;;;1.52;;
48667;SDS011;34453;52.198;5.004;2023-04-24T09:46:28;4.70;;;2.00;;
48667;SDS011;34453;52.198;5.004;2023-04-24T09:48:55;6.43;;;1.45;;
48667;SDS011;34453;52.198;5.004;2023-04-24T09:51:32;7.40;;;1.35;;
48667;SDS011;34453;52.198;5.004;2023-04-24T09:54:00;2.17;;;1.10;;
48667;SDS011;34453;52.198;5.004;2023-04-24T09:56:25;1.45;;;0.85;;
48667;SDS011;34453;52.198;5.004;2023-04-24T09:58:51;2.25;;;0.63;;
48667;SDS011;34453;52.198;5.004;2023-04-24T10:01:28;4.70;;;1.38;;
48667;SDS011;34453;52.198;5.004;2023-04-24T10:03:55;2.75;;;0.63;;
48667;SDS011;34453;52.198;5.004;2023-04-24T10:06:22;3.40;;;0.70;;
48667;SDS011;34453;52.198;5.004;2023-04-24T10:08:47;1.10;;;0.80;;
48667;SDS011;34453;52.198;5.004;2023-04-24T10:11:13;2.58;;;1.02;;
48667;SDS011;34453;52.198;5.004;2023-04-24T10:13:39;2.28;;;1.00;;
48667;SDS011;34453;52.198;5.004;2023-04-24T10:16:05;2.70;;;0.80;;
48667;SDS011;34453;52.198;5.004;2023-04-24T10:18:32;6.00;;;1.02;;
48667;SDS011;34453;52.198;5.004;2023-04-24T10:20:59;15.25;;;2.15;;
48667;SDS011;34453;52.198;5.004;2023-04-24T10:23:25;2.92;;;1.25;;
48667;SDS011;34453;52.198;5.004;2023-04-24T10:25:50;4.85;;;1.05;;
48667;SDS011;34453;52.198;5.004;2023-04-24T10:28:18;5.18;;;0.82;;
48667;SDS011;34453;52.198;5.004;2023-04-24T10:30:44;4.07;;;1.30;;
48667;SDS011;34453;52.198;5.004;2023-04-24T10:33:10;4.93;;;1.40;;
48667;SDS011;34453;52.198;5.004;2023-04-24T10:35:40;11.85;;;2.13;;
48667;SDS011;34453;52.198;5.004;2023-04-24T10:38:11;9.85;;;1.98;;
48667;SDS011;34453;52.198;5.004;2023-04-24T10:40:38;4.82;;;0.80;;
48667;SDS011;34453;52.198;5.004;2023-04-24T10:43:05;10.15;;;1.67;;
48667;SDS011;34453;52.198;5.004;2023-04-24T10:45:34;5.72;;;1.15;;
48667;SDS011;34453;52.198;5.004;2023-04-24T10:48:03;13.27;;;2.17;;
48667;SDS011;34453;52.198;5.004;2023-04-24T10:51:04;2.17;;;0.90;;
48667;SDS011;34453;52.198;5.004;2023-04-24T10:53:23;5.25;;;1.02;;
48667;SDS011;34453;52.198;5.004;2023-04-24T10:58:44;4.03;;;0.80;;
48667;SDS011;34453;52.198;5.004;2023-04-24T11:01:24;7.13;;;0.95;;
48667;SDS011;34453;52.198;5.004;2023-04-24T11:04:01;8.35;;;0.63;;
48667;SDS011;34453;52.198;5.004;2023-04-24T11:09:06;1.92;;;0.82;;
48667;SDS011;34453;52.198;5.004;2023-04-24T11:11:34;1.08;;;0.35;;
48667;SDS011;34453;52.198;5.004;2023-04-24T11:14:02;4.55;;;0.82;;
48667;SDS011;34453;52.198;5.004;2023-04-24T11:16:39;3.10;;;0.60;;
48667;SDS011;34453;52.198;5.004;2023-04-24T11:21:48;4.68;;;0.70;;
48667;SDS011;34453;52.198;5.004;2023-04-24T11:24:50;6.22;;;0.70;;
48667;SDS011;34453;52.198;5.004;2023-04-24T11:27:18;1.13;;;0.55;;
48667;SDS011;34453;52.198;5.004;2023-04-24T11:32:17;2.15;;;1.80;;
48667;SDS011;34453;52.198;5.004;2023-04-24T11:35:12;4.18;;;1.35;;
48667;SDS011;34453;52.198;5.004;2023-04-24T11:37:40;2.45;;;0.90;;
48667;SDS011;34453;52.198;5.004;2023-04-24T11:40:08;5.18;;;0.95;;
48667;SDS011;34453;52.198;5.004;2023-04-24T11:42:40;4.72;;;0.93;;
48667;SDS011;34453;52.198;5.004;2023-04-24T11:45:10;4.28;;;1.33;;
48667;SDS011;34453;52.198;5.004;2023-04-24T11:47:39;7.95;;;1.10;;
48667;SDS011;34453;52.198;5.004;2023-04-24T11:50:07;4.82;;;1.20;;
48667;SDS011;34453;52.198;5.004;2023-04-24T11:52:38;4.95;;;2.00;;
48667;SDS011;34453;52.198;5.004;2023-04-24T11:55:22;9.18;;;1.13;;
48667;SDS011;34453;52.198;5.004;2023-04-24T11:57:51;6.10;;;1.20;;
48667;SDS011;34453;52.198;5.004;2023-04-24T12:00:22;3.55;;;1.05;;
48667;SDS011;34453;52.198;5.004;2023-04-24T12:02:49;4.03;;;1.15;;
48667;SDS011;34453;52.198;5.004;2023-04-24T12:05:26;0.73;;;0.60;;
48667;SDS011;34453;52.198;5.004;2023-04-24T12:07:52;3.25;;;1.27;;
48667;SDS011;34453;52.198;5.004;2023-04-24T12:10:21;10.13;;;1.88;;
48667;SDS011;34453;52.198;5.004;2023-04-24T12:12:49;6.95;;;2.10;;
48667;SDS011;34453;52.198;5.004;2023-04-24T12:15:16;10.65;;;1.88;;
48667;SDS011;34453;52.198;5.004;2023-04-24T12:17:43;6.95;;;1.85;;
48667;SDS011;34453;52.198;5.004;2023-04-24T12:20:09;6.65;;;1.85;;
48667;SDS011;34453;52.198;5.004;2023-04-24T12:22:47;7.20;;;1.98;;
48667;SDS011;34453;52.198;5.004;2023-04-24T12:25:15;5.60;;;1.90;;
48667;SDS011;34453;52.198;5.004;2023-04-24T12:27:44;13.57;;;1.33;;
48667;SDS011;34453;52.198;5.004;2023-04-24T12:30:14;11.57;;;2.83;;
48667;SDS011;34453;52.198;5.004;2023-04-24T12:32:45;13.32;;;2.25;;
48667;SDS011;34453;52.198;5.004;2023-04-24T12:35:12;11.77;;;2.53;;
48667;SDS011;34453;52.198;5.004;2023-04-24T12:37:44;6.88;;;1.48;;
48667;SDS011;34453;52.198;5.004;2023-04-24T12:40:10;10.18;;;2.42;;
48667;SDS011;34453;52.198;5.004;2023-04-24T12:42:46;10.32;;;2.60;;
48667;SDS011;34453;52.198;5.004;2023-04-24T12:45:13;20.85;;;3.67;;
48667;SDS011;34453;52.198;5.004;2023-04-24T12:47:40;10.90;;;2.50;;
48667;SDS011;34453;52.198;5.004;2023-04-24T12:50:07;12.07;;;3.38;;
48667;SDS011;34453;52.198;5.004;2023-04-24T12:52:34;13.43;;;2.80;;
48667;SDS011;34453;52.198;5.004;2023-04-24T12:55:00;14.95;;;2.85;;
48667;SDS011;34453;52.198;5.004;2023-04-24T12:57:27;16.42;;;3.67;;
48667;SDS011;34453;52.198;5.004;2023-04-24T12:59:54;7.47;;;2.03;;
48667;SDS011;34453;52.198;5.004;2023-04-24T13:02:21;15.15;;;2.83;;
48667;SDS011;34453;52.198;5.004;2023-04-24T13:04:47;10.32;;;2.60;;
48667;SDS011;34453;52.198;5.004;2023-04-24T13:07:13;13.57;;;3.38;;
48667;SDS011;34453;52.198;5.004;2023-04-24T13:09:39;5.88;;;2.70;;
48667;SDS011;34453;52.198;5.004;2023-04-24T13:12:06;10.05;;;1.95;;
48667;SDS011;34453;52.198;5.004;2023-04-24T13:14:32;7.40;;;2.75;;
48667;SDS011;34453;52.198;5.004;2023-04-24T13:16:57;15.85;;;3.63;;
48667;SDS011;34453;52.198;5.004;2023-04-24T13:19:24;10.43;;;2.42;;
48667;SDS011;34453;52.198;5.004;2023-04-24T13:21:56;8.95;;;3.38;;
48667;SDS011;34453;52.198;5.004;2023-04-24T13:24:22;14.35;;;3.70;;
48667;SDS011;34453;52.198;5.004;2023-04-24T13:26:51;9.18;;;2.08;;
48667;SDS011;34453;52.198;5.004;2023-04-24T13:29:17;8.38;;;2.35;;
48667;SDS011;34453;52.198;5.004;2023-04-24T13:31:42;17.08;;;3.08;;
48667;SDS011;34453;52.198;5.004;2023-04-24T13:34:08;17.83;;;3.22;;
48667;SDS011;34453;52.198;5.004;2023-04-24T13:36:33;13.30;;;2.72;;
48667;SDS011;34453;52.198;5.004;2023-04-24T13:39:02;11.90;;;2.85;;
48667;SDS011;34453;52.198;5.004;2023-04-24T13:41:30;5.88;;;2.30;;
48667;SDS011;34453;52.198;5.004;2023-04-24T13:43:56;10.15;;;2.63;;
48667;SDS011;34453;52.198;5.004;2023-04-24T13:46:21;14.13;;;2.95;;
48667;SDS011;34453;52.198;5.004;2023-04-24T13:48:46;18.00;;;3.53;;
48667;SDS011;34453;52.198;5.004;2023-04-24T13:51:12;16.02;;;3.20;;
48667;SDS011;34453;52.198;5.004;2023-04-24T13:53:37;12.50;;;4.75;;
48667;SDS011;34453;52.198;5.004;2023-04-24T13:56:04;7.65;;;3.33;;
48667;SDS011;34453;52.198;5.004;2023-04-24T13:58:30;13.88;;;3.28;;
48667;SDS011;34453;52.198;5.004;2023-04-24T14:00:56;12.00;;;3.08;;
48667;SDS011;34453;52.198;5.004;2023-04-24T14:03:21;8.38;;;2.53;;
48667;SDS011;34453;52.198;5.004;2023-04-24T14:05:46;12.00;;;3.90;;
48667;SDS011;34453;52.198;5.004;2023-04-24T14:08:12;6.72;;;2.72;;
48667;SDS011;34453;52.198;5.004;2023-04-24T14:10:37;12.43;;;4.00;;
48667;SDS011;34453;52.198;5.004;2023-04-24T14:13:03;17.63;;;3.55;;
48667;SDS011;34453;52.198;5.004;2023-04-24T14:15:28;9.02;;;2.72;;
48667;SDS011;34453;52.198;5.004;2023-04-24T14:17:54;18.33;;;3.10;;
48667;SDS011;34453;52.198;5.004;2023-04-24T14:20:19;15.77;;;3.28;;
48667;SDS011;34453;52.198;5.004;2023-04-24T14:22:45;9.15;;;3.05;;
48667;SDS011;34453;52.198;5.004;2023-04-24T14:25:10;11.38;;;3.38;;
48667;SDS011;34453;52.198;5.004;2023-04-24T14:27:36;5.75;;;3.10;;
48667;SDS011;34453;52.198;5.004;2023-04-24T14:30:01;12.55;;;3.92;;
48667;SDS011;34453;52.198;5.004;2023-04-24T14:32:27;22.23;;;4.03;;
48667;SDS011;34453;52.198;5.004;2023-04-24T14:34:53;15.63;;;3.00;;
48667;SDS011;34453;52.198;5.004;2023-04-24T14:37:18;13.27;;;2.72;;
48667;SDS011;34453;52.198;5.004;2023-04-24T14:39:45;10.95;;;5.47;;
48667;SDS011;34453;52.198;5.004;2023-04-24T14:42:10;17.45;;;2.95;;
48667;SDS011;34453;52.198;5.004;2023-04-24T14:44:36;9.13;;;4.20;;
48667;SDS011;34453;52.198;5.004;2023-04-24T14:47:01;13.13;;;3.53;;
48667;SDS011;34453;52.198;5.004;2023-04-24T14:49:27;15.45;;;4.28;;
48667;SDS011;34453;52.198;5.004;2023-04-24T14:51:52;16.48;;;3.60;;